Map

Track Data

SID SEASON NUMBER BASIN SUBBASIN NAME ISO_TIME NATURE LAT LON WMO_WIND WMO_PRES WMO_AGENCY TRACK_TYPE DIST2LAND LANDFALL IFLAG USA_AGENCY USA_ATCF_ID USA_LAT USA_LON USA_RECORD USA_STATUS USA_WIND USA_PRES USA_SSHS USA_R34_NE USA_R34_SE USA_R34_SW USA_R34_NW USA_R50_NE USA_R50_SE USA_R50_SW USA_R50_NW USA_R64_NE USA_R64_SE USA_R64_SW USA_R64_NW USA_POCI USA_ROCI USA_RMW USA_EYE TOKYO_LAT TOKYO_LON TOKYO_GRADE TOKYO_WIND TOKYO_PRES TOKYO_R50_DIR TOKYO_R50_LONG TOKYO_R50_SHORT TOKYO_R30_DIR TOKYO_R30_LONG TOKYO_R30_SHORT TOKYO_LAND CMA_LAT CMA_LON CMA_CAT CMA_WIND CMA_PRES HKO_LAT HKO_LON HKO_CAT HKO_WIND HKO_PRES NEWDELHI_LAT NEWDELHI_LON NEWDELHI_GRADE NEWDELHI_WIND NEWDELHI_PRES NEWDELHI_CI NEWDELHI_DP NEWDELHI_POCI REUNION_LAT REUNION_LON REUNION_TYPE REUNION_WIND REUNION_PRES REUNION_TNUM REUNION_CI REUNION_RMW REUNION_R34_NE REUNION_R34_SE REUNION_R34_SW REUNION_R34_NW REUNION_R50_NE REUNION_R50_SE REUNION_R50_SW REUNION_R50_NW REUNION_R64_NE REUNION_R64_SE REUNION_R64_SW REUNION_R64_NW BOM_LAT BOM_LON BOM_TYPE BOM_WIND BOM_PRES BOM_TNUM BOM_CI BOM_RMW BOM_R34_NE BOM_R34_SE BOM_R34_SW BOM_R34_NW BOM_R50_NE BOM_R50_SE BOM_R50_SW BOM_R50_NW BOM_R64_NE BOM_R64_SE BOM_R64_SW BOM_R64_NW BOM_ROCI BOM_POCI BOM_EYE BOM_POS_METHOD BOM_PRES_METHOD NADI_LAT NADI_LON NADI_CAT NADI_WIND NADI_PRES WELLINGTON_LAT WELLINGTON_LON WELLINGTON_WIND WELLINGTON_PRES DS824_LAT DS824_LON DS824_STAGE DS824_WIND DS824_PRES TD9636_LAT TD9636_LON TD9636_STAGE TD9636_WIND TD9636_PRES TD9635_LAT TD9635_LON TD9635_WIND TD9635_PRES TD9635_ROCI NEUMANN_LAT NEUMANN_LON NEUMANN_CLASS NEUMANN_WIND NEUMANN_PRES MLC_LAT MLC_LON MLC_CLASS MLC_WIND MLC_PRES USA_GUST BOM_GUST BOM_GUST_PER REUNION_GUST REUNION_GUST_PER USA_SEAHGT USA_SEARAD_NE USA_SEARAD_SE USA_SEARAD_SW USA_SEARAD_NW STORM_SPEED STORM_DIR
1981321N13092 1981 108 NI BB NOT_NAMED 1981-11-17 02:00:00 NR 12.5000 91.8000 main 463 461 __________O___ -1 12.5000 91.8000 0 20 9 295
1981321N13092 1981 108 NI BB NOT_NAMED 1981-11-17 03:00:00 NR 12.5636 91.6610 main 461 461 __________P___ -1 12.5636 91.6610 0 21 9 294
1981321N13092 1981 108 NI BB NOT_NAMED 1981-11-17 06:00:00 NR 12.7389 91.2398 main 489 481 O_________P___ jtwc_io IO021981 12.7000 91.2000 25 -1 12.7519 91.2531 0 24 9 295
1981321N13092 1981 108 NI BB NOT_NAMED 1981-11-17 09:00:00 NR 12.9248 90.8576 main 496 496 P_________P___ IO021981 12.9102 90.8152 27 -1 12.9321 90.8788 0 28 8 298
1981321N13092 1981 108 NI BB NOT_NAMED 1981-11-17 12:00:00 NR 13.0994 90.5366 main 513 506 O_________P___ jtwc_io IO021981 13.1000 90.5000 30 -1 13.0989 90.5640 0 32 7 301
1981321N13092 1981 108 NI BB NOT_NAMED 1981-11-17 14:00:00 NR 13.2039 90.3787 main 515 515 P_________O___ IO021981 13.2078 90.3575 33 -1 13.2000 90.4000 2 35 5 306
1981321N13092 1981 108 NI BB NOT_NAMED 1981-11-17 15:00:00 NR 13.2523 90.3196 main 517 517 P_________P___ IO021981 13.2574 90.3049 35 0 13.2471 90.3343 2 36 4 317
1981321N13092 1981 108 NI BB NOT_NAMED 1981-11-17 18:00:00 NR 13.3902 90.1983 main 519 513 O_________P___ jtwc_io IO021981 13.4000 90.2000 40 0 13.3804 90.1965 2 39 3 326
1981321N13092 1981 108 NI BB NOT_NAMED 1981-11-17 21:00:00 NR 13.5295 90.1278 main 522 510 P_________P___ IO021981 13.5425 90.1275 42 0 13.5165 90.1281 2 43 3 342
1981321N13092 1981 108 NI BB NOT_NAMED 1981-11-18 00:00:00 NR 13.6870 90.1020 main 510 504 O_________P___ jtwc_io IO021981 13.7000 90.1000 45 0 13.6740 90.1039 2 47 3 353
1981321N13092 1981 108 NI BB NOT_NAMED 1981-11-18 02:00:00 NR 13.8073 90.0960 main 504 499 P_________O___ IO021981 13.8146 90.0921 48 0 13.8000 90.1000 4 50 4 352
1981321N13092 1981 108 NI BB NOT_NAMED 1981-11-18 03:00:00 NR 13.8750 90.0894 main 499 489 P_________P___ IO021981 13.8775 90.0925 50 0 13.8724 90.0863 4 50 5 357
1981321N13092 1981 108 NI BB NOT_NAMED 1981-11-18 06:00:00 NR 14.1081 90.0800 main 489 475 O_________P___ jtwc_io IO021981 14.1000 90.1000 55 0 14.1163 90.0601 4 51 5 357
1981321N13092 1981 108 NI BB NOT_NAMED 1981-11-18 09:00:00 NR 14.3888 90.0744 main 475 463 P_________P___ IO021981 14.3850 90.0925 55 0 14.3926 90.0564 4 52 6 2
1981321N13092 1981 108 NI BB NOT_NAMED 1981-11-18 12:00:00 NR 14.6961 90.0875 main 463 456 O_________P___ jtwc_io IO021981 14.7000 90.1000 55 0 14.6921 90.0751 4 54 6 4
1981321N13092 1981 108 NI BB NOT_NAMED 1981-11-18 14:00:00 NR 14.8973 90.1127 main 456 453 P_________O___ IO021981 14.8946 90.1254 56 0 14.9000 90.1000 4 55 6 7
1981321N13092 1981 108 NI BB NOT_NAMED 1981-11-18 15:00:00 NR 14.9952 90.1281 main 453 435 P_________P___ IO021981 14.9925 90.1425 57 0 14.9979 90.1137 4 55 6 10
1981321N13092 1981 108 NI BB NOT_NAMED 1981-11-18 18:00:00 NR 15.3006 90.1854 main 435 430 O_________P___ jtwc_io IO021981 15.3000 90.2000 60 0 15.3013 90.1709 4 58 7 10
1981321N13092 1981 108 NI BB NOT_NAMED 1981-11-18 21:00:00 NR 15.6319 90.2449 main 430 417 P_________P___ IO021981 15.6425 90.2426 62 0 15.6212 90.2472 4 60 7 10
1981321N13092 1981 108 NI BB NOT_NAMED 1981-11-19 00:00:00 NR 15.9805 90.3182 main 417 406 O_________P___ jtwc_io IO021981 16.0000 90.3000 65 1 15.9610 90.3365 4 63 7 12
1981321N13092 1981 108 NI BB NOT_NAMED 1981-11-19 02:00:00 NR 16.2140 90.3794 main 406 406 P_________O___ IO021981 16.2279 90.3588 66 1 16.2000 90.4000 4 65 7 14
1981321N13092 1981 108 NI BB NOT_NAMED 1981-11-19 03:00:00 NR 16.3323 90.4107 main 407 399 P_________P___ IO021981 16.3425 90.3925 67 1 16.3220 90.4288 4 65 8 14
1981321N13092 1981 108 NI BB NOT_NAMED 1981-11-19 06:00:00 NR 16.7021 90.5101 main 402 390 O_________P___ jtwc_io IO021981 16.7000 90.5000 70 1 16.7042 90.5201 4 68 8 14
1981321N13092 1981 108 NI BB NOT_NAMED 1981-11-19 09:00:00 NR 17.0953 90.6058 main 390 358 P_________P___ IO021981 17.0850 90.5926 72 1 17.1055 90.6189 4 70 8 14
1981321N13092 1981 108 NI BB NOT_NAMED 1981-11-19 12:00:00 NR 17.5099 90.7126 main 358 334 O_________P___ jtwc_io IO021981 17.5000 90.7000 75 1 17.5198 90.7251 4 73 9 15
1981321N13092 1981 108 NI BB NOT_NAMED 1981-11-19 14:00:00 NR 17.7988 90.7987 main 334 329 P_________O___ IO021981 17.7975 90.7975 75 1 17.8000 90.8000 4 75 9 16
1981321N13092 1981 108 NI BB NOT_NAMED 1981-11-19 15:00:00 NR 17.9442 90.8435 main 329 275 P_________P___ IO021981 17.9500 90.8499 75 1 17.9383 90.8371 4 74 9 16
1981321N13092 1981 108 NI BB NOT_NAMED 1981-11-19 18:00:00 NR 18.3794 90.9768 main 275 237 O_________P___ jtwc_io IO021981 18.4000 91.0000 75 1 18.3587 90.9535 4 71 9 15
1981321N13092 1981 108 NI BB NOT_NAMED 1981-11-19 21:00:00 NR 18.7925 91.0888 main 237 199 P_________P___ IO021981 18.8000 91.1002 70 1 18.7850 91.0773 4 69 9 15
1981321N13092 1981 108 NI BB NOT_NAMED 1981-11-20 00:00:00 NR 19.2070 91.2043 main 199 171 O_________P___ jtwc_io IO021981 19.2000 91.2000 65 1 19.2140 91.2085 4 66 9 15
1981321N13092 1981 108 NI BB NOT_NAMED 1981-11-20 02:00:00 NR 19.4988 91.2961 main 171 165 P_________O___ IO021981 19.4975 91.2921 63 0 19.5000 91.3000 4 65 9 17
1981321N13092 1981 108 NI BB NOT_NAMED 1981-11-20 03:00:00 NR 19.6534 91.3479 main 160 115 P_________P___ IO021981 19.6500 91.3425 62 0 19.6568 91.3533 4 63 10 18
1981321N13092 1981 108 NI BB NOT_NAMED 1981-11-20 06:00:00 NR 20.1167 91.5109 main 115 76 O_________P___ jtwc_io IO021981 20.1000 91.5000 60 0 20.1334 91.5217 4 60 10 19
1981321N13092 1981 108 NI BB NOT_NAMED 1981-11-20 09:00:00 NR 20.5560 91.6723 main 70 45 P_________P___ IO021981 20.5225 91.6575 57 0 20.5895 91.6870 4 56 9 19
1981321N13092 1981 108 NI BB NOT_NAMED 1981-11-20 12:00:00 NR 20.9434 91.8144 main 45 23 O_________P___ jtwc_io IO021981 20.9000 91.8000 55 0 20.9868 91.8288 4 52 8 18
1981321N13092 1981 108 NI BB NOT_NAMED 1981-11-20 14:00:00 NR 21.1646 91.8900 main 20 20 P_________O___ IO021981 21.1173 91.8765 53 0 21.2000 91.9000 4 50 7 17
1981321N13092 1981 108 NI BB NOT_NAMED 1981-11-20 15:00:00 NR 21.2595 91.9200 main 20 0 P_________P___ IO021981 21.2175 91.9100 52 0 21.2875 91.9266 4 5 15
1981321N13092 1981 108 NI BB NOT_NAMED 1981-11-20 18:00:00 NR 21.4939 91.9855 main 0 0 O_________P___ jtwc_io IO021981 21.5000 92.0000 50 0 21.4909 91.9782 4 4 13
1981321N13092 1981 108 NI BB NOT_NAMED 1981-11-20 20:00:00 NR 21.6000 92.0000 main 0 __________O___ IO021981 -1 21.6000 92.0000 6 3 0

About IBTrACS Database

This database is a web-friendly format of International Best Track Archive for Climate Stewardship (IBTrACS), a global best track data archive curated by NOAA dating back to 1842.

Updated: 2021-10-27